createdAt,value
2023-08-06T00:02:28.043Z,14.58
2023-08-06T00:07:24.844Z,14.51
2023-08-06T00:12:21.569Z,14.44
2023-08-06T00:17:18.701Z,14.43
2023-08-06T00:22:15.429Z,14.22
2023-08-06T00:27:12.200Z,14.25
2023-08-06T00:32:08.931Z,14.29
2023-08-06T00:37:05.795Z,14.20
2023-08-06T00:42:02.559Z,14.10
2023-08-06T00:46:59.495Z,14.02
2023-08-06T00:51:56.432Z,13.98
2023-08-06T00:56:53.761Z,13.84
2023-08-06T01:01:52.166Z,13.80
2023-08-06T01:06:53.494Z,13.76
2023-08-06T01:12:31.868Z,13.65
2023-08-06T01:17:30.385Z,13.57
2023-08-06T01:22:27.150Z,13.54
2023-08-06T01:27:34.894Z,13.50
2023-08-06T01:32:35.436Z,13.42
2023-08-06T01:37:32.954Z,13.40
2023-08-06T01:42:31.540Z,13.33
2023-08-06T01:47:28.562Z,13.13
2023-08-06T01:52:25.308Z,13.30
2023-08-06T01:57:22.143Z,13.25
2023-08-06T02:02:18.878Z,13.26
2023-08-06T02:07:15.589Z,13.21
2023-08-06T02:12:12.354Z,13.15
2023-08-06T02:17:09.088Z,13.10
2023-08-06T02:22:06.031Z,13.09
2023-08-06T02:27:03.152Z,12.88
2023-08-06T02:31:59.959Z,12.96
2023-08-06T02:36:56.685Z,12.90
2023-08-06T02:41:53.782Z,12.82
2023-08-06T02:46:50.628Z,12.80
2023-08-06T02:51:47.402Z,12.76
2023-08-06T02:56:46.244Z,12.72
2023-08-06T03:01:43.067Z,12.71
2023-08-06T03:06:39.774Z,12.67
2023-08-06T03:11:36.528Z,12.64
2023-08-06T03:16:33.247Z,12.58
2023-08-06T03:21:30.033Z,12.51
2023-08-06T03:26:26.821Z,12.47
2023-08-06T03:31:23.629Z,12.42
2023-08-06T03:36:20.412Z,12.35
2023-08-06T03:41:17.475Z,12.37
2023-08-06T03:46:14.330Z,12.41
2023-08-06T03:51:11.220Z,12.32
2023-08-06T03:56:07.963Z,12.33
2023-08-06T04:01:05.254Z,12.33
2023-08-06T04:06:04.582Z,12.36
2023-08-06T04:11:01.378Z,12.36
2023-08-06T04:16:05.412Z,12.26
2023-08-06T04:21:03.450Z,12.23
2023-08-06T04:26:00.262Z,12.27
2023-08-06T04:30:57.092Z,12.26
2023-08-06T04:35:57.451Z,12.08
2023-08-06T04:40:54.924Z,12.18
2023-08-06T04:45:54.708Z,12.18
2023-08-06T04:50:51.863Z,12.16
2023-08-06T04:55:48.804Z,12.15
2023-08-06T05:00:45.566Z,11.99
2023-08-06T05:05:42.954Z,12.12
2023-08-06T05:10:39.695Z,12.11
2023-08-06T05:15:36.422Z,12.00
2023-08-06T05:20:37.628Z,12.17
2023-08-06T05:25:37.650Z,12.22
2023-08-06T05:30:34.373Z,12.27
2023-08-06T05:35:31.120Z,12.33
2023-08-06T05:40:27.835Z,12.32
2023-08-06T05:45:24.750Z,13.09
2023-08-06T05:50:21.486Z,13.49
2023-08-06T05:55:18.275Z,13.52
2023-08-06T06:00:15.311Z,13.87
2023-08-06T06:05:12.203Z,14.19
2023-08-06T06:10:09.433Z,14.30
2023-08-06T06:15:06.835Z,14.42
2023-08-06T06:20:05.472Z,14.50
2023-08-06T06:25:02.188Z,14.39
2023-08-06T06:29:58.988Z,14.52
2023-08-06T06:34:55.745Z,14.44
2023-08-06T06:39:52.478Z,14.73
2023-08-06T06:44:49.220Z,14.97
2023-08-06T06:49:46.371Z,15.10
2023-08-06T06:54:43.126Z,15.28
2023-08-06T06:59:40.129Z,15.52
2023-08-06T07:04:36.916Z,15.63
2023-08-06T07:09:33.663Z,15.79
2023-08-06T07:14:30.756Z,15.96
2023-08-06T07:19:27.539Z,16.08
2023-08-06T07:24:24.402Z,16.18
2023-08-06T07:29:23.169Z,16.47
2023-08-06T07:34:20.403Z,16.62
2023-08-06T07:39:18.309Z,17.01
2023-08-06T07:44:15.208Z,17.11
2023-08-06T07:49:12.597Z,17.09
2023-08-06T07:54:09.832Z,17.33
2023-08-06T07:59:06.720Z,17.60
2023-08-06T08:04:03.530Z,17.56
2023-08-06T08:09:00.324Z,17.82
2023-08-06T08:13:57.080Z,17.91
2023-08-06T08:18:53.784Z,17.86
2023-08-06T08:23:50.504Z,18.04
2023-08-06T08:28:47.219Z,18.04
2023-08-06T08:33:43.979Z,18.02
2023-08-06T08:38:40.746Z,18.01
2023-08-06T08:43:38.353Z,18.08
2023-08-06T08:48:35.193Z,18.11
2023-08-06T08:53:32.850Z,17.86
2023-08-06T08:58:29.727Z,18.21
2023-08-06T09:03:27.245Z,18.36
2023-08-06T09:08:31.650Z,18.54
2023-08-06T09:13:28.543Z,18.49
2023-08-06T09:18:31.823Z,18.72
2023-08-06T09:23:34.491Z,18.76
2023-08-06T09:28:43.476Z,18.69
2023-08-06T09:33:40.322Z,18.85
2023-08-06T09:38:41.759Z,19.30
2023-08-06T09:43:45.043Z,19.71
2023-08-06T09:48:42.608Z,19.89
2023-08-06T09:53:41.690Z,20.29
2023-08-06T09:58:39.507Z,20.63
2023-08-06T10:03:37.898Z,20.91
2023-08-06T10:08:34.689Z,21.05
2023-08-06T10:13:34.364Z,20.99
2023-08-06T10:18:31.923Z,21.54
2023-08-06T10:23:36.712Z,21.58
2023-08-06T10:28:40.097Z,21.59
2023-08-06T10:33:45.728Z,21.44
2023-08-06T10:38:50.282Z,21.27
2023-08-06T10:43:48.784Z,21.21
2023-08-06T10:48:47.448Z,21.09
2023-08-06T10:53:49.472Z,20.91
2023-08-06T10:58:48.075Z,20.75
2023-08-06T11:03:47.336Z,20.70
2023-08-06T11:08:49.928Z,20.57
2023-08-06T11:13:48.447Z,20.40
2023-08-06T11:18:45.900Z,20.41
2023-08-06T11:23:42.977Z,20.38
2023-08-06T11:28:39.743Z,20.28
2023-08-06T11:33:36.473Z,20.19
2023-08-06T11:38:33.781Z,20.26
2023-08-06T11:43:32.358Z,20.40
2023-08-06T11:48:29.089Z,20.47
2023-08-06T11:53:29.491Z,20.63
2023-08-06T11:58:26.232Z,20.85
2023-08-06T12:03:28.747Z,20.84
2023-08-06T12:08:29.365Z,20.89
2023-08-06T12:13:26.331Z,20.94
2023-08-06T12:18:23.664Z,21.09
2023-08-06T12:23:20.466Z,21.24
2023-08-06T12:28:17.314Z,21.32
2023-08-06T12:33:14.057Z,21.36
2023-08-06T12:38:10.960Z,21.27
2023-08-06T12:43:07.848Z,21.16
2023-08-06T12:48:04.966Z,21.01
2023-08-06T12:53:02.060Z,20.93
2023-08-06T12:57:59.358Z,20.98
2023-08-06T13:02:56.870Z,21.03
2023-08-06T13:07:53.756Z,21.04
2023-08-06T13:12:50.551Z,21.08
2023-08-06T13:17:47.361Z,21.01
2023-08-06T13:22:46.431Z,20.93
2023-08-06T13:27:45.184Z,20.79
2023-08-06T13:32:41.978Z,20.53
2023-08-06T13:37:39.318Z,20.62
2023-08-06T13:42:36.061Z,20.69
2023-08-06T13:47:33.067Z,20.68
2023-08-06T13:52:29.996Z,20.55
2023-08-06T13:57:26.770Z,21.07
2023-08-06T14:02:24.574Z,21.34
2023-08-06T14:07:21.420Z,21.42
2023-08-06T14:12:18.212Z,21.39
2023-08-06T14:17:14.969Z,21.20
2023-08-06T14:22:11.713Z,20.98
2023-08-06T14:27:08.820Z,20.81
2023-08-06T14:32:06.104Z,20.70
2023-08-06T14:37:02.967Z,20.61
2023-08-06T14:41:59.691Z,20.50
2023-08-06T14:46:56.669Z,20.42
2023-08-06T14:51:53.676Z,20.40
2023-08-06T14:56:50.425Z,20.33
2023-08-06T15:01:47.199Z,20.37
2023-08-06T15:06:43.926Z,20.59
2023-08-06T15:11:40.861Z,20.92
2023-08-06T15:16:37.679Z,21.71
2023-08-06T15:21:35.234Z,22.22
2023-08-06T15:26:31.993Z,22.86
2023-08-06T15:31:38.467Z,23.20
2023-08-06T15:36:35.479Z,23.75
2023-08-06T15:41:32.358Z,24.13
2023-08-06T15:46:29.149Z,24.32
2023-08-06T15:51:25.930Z,24.48
2023-08-06T15:56:22.706Z,24.79
2023-08-06T16:01:19.470Z,24.68
2023-08-06T16:06:19.055Z,24.13
2023-08-06T16:11:15.825Z,23.10
2023-08-06T16:16:12.723Z,22.16
2023-08-06T16:21:09.508Z,21.57
2023-08-06T16:26:06.258Z,21.55
2023-08-06T16:31:03.324Z,21.71
2023-08-06T16:36:00.079Z,21.61
2023-08-06T16:40:57.651Z,21.74
2023-08-06T16:45:57.512Z,21.81
2023-08-06T16:51:00.864Z,21.92
2023-08-06T16:55:58.779Z,21.71
2023-08-06T17:00:57.326Z,21.63
2023-08-06T17:05:54.121Z,21.37
2023-08-06T17:10:50.853Z,21.12
2023-08-06T17:15:48.141Z,20.95
2023-08-06T17:20:46.054Z,20.71
2023-08-06T17:25:44.429Z,20.72
2023-08-06T17:30:42.379Z,20.58
2023-08-06T17:35:44.131Z,20.34
2023-08-06T17:40:40.983Z,20.39
2023-08-06T17:45:37.690Z,20.33
2023-08-06T17:50:34.470Z,20.19
2023-08-06T17:55:31.899Z,20.17
2023-08-06T18:00:28.720Z,20.11
2023-08-06T18:05:26.949Z,19.95
2023-08-06T18:10:23.904Z,20.03
2023-08-06T18:15:20.840Z,19.84
2023-08-06T18:20:17.580Z,19.83
2023-08-06T18:25:14.380Z,19.65
2023-08-06T18:30:11.569Z,19.72
2023-08-06T18:35:09.362Z,19.66
2023-08-06T18:40:08.222Z,19.58
2023-08-06T18:45:05.643Z,19.45
2023-08-06T18:50:02.552Z,19.35
2023-08-06T18:54:59.342Z,19.28
2023-08-06T18:59:56.606Z,19.18
2023-08-06T19:04:55.785Z,19.11
2023-08-06T19:09:52.592Z,19.07
2023-08-06T19:14:49.437Z,19.04
2023-08-06T19:19:46.332Z,19.01
2023-08-06T19:24:43.942Z,19.01
2023-08-06T19:29:40.718Z,18.97
2023-08-06T19:34:37.513Z,18.89
2023-08-06T19:39:34.271Z,18.66
2023-08-06T19:44:31.080Z,18.71
2023-08-06T19:49:27.818Z,18.63
2023-08-06T19:54:24.590Z,18.53
2023-08-06T19:59:21.456Z,18.40
2023-08-06T20:04:18.910Z,18.13
2023-08-06T20:09:16.789Z,17.91
2023-08-06T20:14:13.633Z,17.80
2023-08-06T20:19:10.396Z,17.79
2023-08-06T20:24:07.184Z,17.41
2023-08-06T20:29:04.832Z,17.42
2023-08-06T20:34:01.638Z,17.36
2023-08-06T20:38:58.432Z,17.29
2023-08-06T20:43:55.163Z,17.20
2023-08-06T20:48:51.969Z,16.94
2023-08-06T20:53:48.878Z,16.97
2023-08-06T20:58:45.678Z,16.71
2023-08-06T21:03:42.449Z,16.76
2023-08-06T21:08:39.209Z,16.65
2023-08-06T21:13:36.916Z,16.41
2023-08-06T21:18:35.224Z,16.48
2023-08-06T21:23:32.455Z,16.40
2023-08-06T21:28:30.417Z,16.24
2023-08-06T21:33:31.632Z,16.14
2023-08-06T21:38:29.615Z,15.90
2023-08-06T21:43:26.407Z,15.94
2023-08-06T21:48:25.277Z,15.76
2023-08-06T21:53:22.447Z,15.81
2023-08-06T21:58:19.180Z,15.73
2023-08-06T22:03:15.911Z,15.64
2023-08-06T22:08:12.691Z,15.47
2023-08-06T22:13:09.517Z,15.38
2023-08-06T22:18:07.666Z,15.31
2023-08-06T22:23:05.157Z,15.25
2023-08-06T22:28:01.895Z,15.00
2023-08-06T22:32:59.708Z,15.10
2023-08-06T22:37:56.552Z,15.11
2023-08-06T22:42:53.279Z,15.08
2023-08-06T22:47:50.109Z,15.03
2023-08-06T22:52:47.009Z,15.05
2023-08-06T22:57:43.798Z,15.03
2023-08-06T23:02:44.325Z,14.99
2023-08-06T23:07:45.752Z,15.00
2023-08-06T23:12:42.494Z,14.88
2023-08-06T23:17:40.246Z,14.93
2023-08-06T23:22:37.104Z,14.87
2023-08-06T23:27:33.972Z,14.85
2023-08-06T23:32:30.823Z,14.83
2023-08-06T23:37:27.603Z,14.80
2023-08-06T23:42:24.491Z,14.78
2023-08-06T23:47:21.277Z,14.76
2023-08-06T23:52:18.037Z,14.65
2023-08-06T23:57:14.884Z,14.71
